Gale Warning
click here for details
SBYC BurgeeSandy Bay Yacht Club
Weather Center


Nearby METAR Reports

Nearby METAR Reports

 

KBVY - Beverly, Massachusetts, USA
Distance from station: WSW 16mi, 26km
Updated: Tue, 13-Nov-2018 6:53pm EST
Mostly Cloudy
Mostly Cloudy
 Wind from WNW
Wind: WNW 10 mph , 17 km/h, Gust: 23 mph , 37 km/h
Temperature: 43°F , 6°C
Wind Chill: 37°F , 3°C
Dew Point: 36°F , 2°C
Humidity: 76%
Barometer: 29.80 inHg , 1009.1 hPa
Clouds: Mostly Cloudy
Visibility: 10 miles , 16 km
Cloud details: Mostly Cloudy 12000 ft
2018/11/13 23:53 KBVY 132353Z 29009G20KT 10SM BKN120 06/02 A2980 RMK AO2 SLP088 60003 T00610017 10117 20061 51031
KLWM - Lawrence, Massachusetts, USA
Distance from station: W 27mi, 43km
Updated: Tue, 13-Nov-2018 6:54pm EST
Overcast
Overcast
 Wind from WNW
Wind: WNW 13 mph , 20 km/h, Gust: 23 mph , 37 km/h
Temperature: 45°F , 7°C
Wind Chill: 39°F , 4°C
Dew Point: 36°F , 2°C
Humidity: 71%
Barometer: 29.83 inHg , 1010.2 hPa
Clouds: Overcast
Visibility: 10 miles , 16 km
Cloud details: Overcast 11000 ft
2018/11/13 23:54 KLWM 132354Z 29011G20KT 10SM OVC110 07/02 A2983 RMK AO2 SLP103 60000 T00670017 10122 20067 51035
 
KBOS - Boston, Massachusetts, USA
Distance from station: SW 29mi, 46km
Updated: Tue, 13-Nov-2018 6:54pm EST
Overcast
Overcast
 Wind from WNW
Wind: WNW 18 mph , 30 km/h, Gust: 26 mph , 43 km/h
Temperature: 46°F , 8°C
Wind Chill: 39°F , 4°C
Dew Point: 36°F , 2°C
Humidity: 66%
Barometer: 29.83 inHg , 1010.2 hPa
Clouds: Overcast
Visibility: 10 miles , 16 km
Cloud details: Few Clouds 1100 ft
Partly Cloudy 8500 ft
Mostly Cloudy 12000 ft
Overcast 20000 ft
2018/11/13 23:54 KBOS 132354Z 30016G23KT 10SM FEW011 SCT085 BKN120 OVC200 08/02 A2983 RMK AO2 SLP100 60001 T00780017 10122 20078 51038
KPSM - Portsmouth/Pease, New Hampshire, USA
Distance from station: NNW 30mi, 48km
Updated: Tue, 13-Nov-2018 6:56pm EST
Mostly Cloudy
Mostly Cloudy
 Wind from W
Wind: W 12 mph , 19 km/h, Gust: 20 mph , 31 km/h
Temperature: 41°F , 5°C
Wind Chill: 34°F , 1°C
Dew Point: 36°F , 2°C
Humidity: 81%
Barometer: 29.77 inHg , 1008.1 hPa
Clouds: Mostly Cloudy
Visibility: 10 miles , 16 km
Cloud details: Mostly Cloudy 12000 ft
2018/11/13 23:56 KPSM 132356Z 27010G17KT 10SM BKN120 05/02 A2977 RMK AO2A SLP084 60006 T00480016 10079 20048 52031
 
KMHT - Manchester, New Hampshire, USA
Distance from station: WNW 46mi, 73km
Updated: Tue, 13-Nov-2018 6:53pm EST
Overcast
Overcast
 Wind from WNW
Wind: WNW 10 mph , 17 km/h
Temperature: 43°F , 6°C
Wind Chill: 37°F , 3°C
Dew Point: 34°F , 1°C
Humidity: 71%
Barometer: 29.82 inHg , 1009.8 hPa
Clouds: Overcast
Visibility: 10 miles , 16 km
Cloud details: Overcast 11000 ft
2018/11/13 23:53 KMHT 132353Z 29009KT 10SM OVC110 06/01 A2982 RMK AO2 SLP113 60002 T00560011 10061 20050 51031
KPVC - Provincetown, Massachusetts, USA
Distance from station: SSE 46mi, 73km
Updated: Tue, 13-Nov-2018 6:56pm EST
Mostly Cloudy
Mostly Cloudy
 Wind from WNW
Wind: WNW 20 mph , 31 km/h, Gust: 30 mph , 48 km/h
Temperature: 46°F , 8°C
Wind Chill: 38°F , 3°C
Dew Point: 41°F , 5°C
Humidity: 82%
Barometer: 29.80 inHg , 1009.1 hPa
Clouds: Mostly Cloudy
Visibility: 10 miles , 16 km
Cloud details: Mostly Cloudy 10000 ft
2018/11/13 23:56 KPVC 132356Z AUTO 30017G26KT 10SM BKN100 08/05 A2980 RMK AO2 PK WND 30030/2322 SLP090 60002 T00830050 10144 20083 51040
 
KDAW - Rochester, New Hampshire, USA
Distance from station: NNW 46mi, 74km
Updated: Tue, 13-Nov-2018 6:51pm EST
Mostly Cloudy
Mostly Cloudy
 Wind from WNW
Wind: WNW 12 mph , 19 km/h, Gust: 20 mph , 31 km/h
Temperature: 39°F , 4°C
Wind Chill: 32°F , 0°C
Dew Point: 34°F , 1°C
Humidity: 81%
Barometer: 29.77 inHg , 1008.1 hPa
Clouds: Mostly Cloudy
Visibility: 10 miles , 16 km
Cloud details: Mostly Cloudy 11000 ft
2018/11/13 23:51 KDAW 132351Z AUTO 30010G17KT 240V320 10SM BKN110 04/01 A2977 RMK AO2 SLP079 60007 T00440011 10056 20039 53026
KASH - Nashua/Boire Fld, New Hampshire, USA
Distance from station: W 47mi, 75km
Updated: Tue, 13-Nov-2018 6:56pm EST
Overcast
Overcast
 Wind from WNW
Wind: WNW 16 mph , 26 km/h, Gust: 23 mph , 37 km/h
Temperature: 41°F , 5°C
Wind Chill: 33°F , 1°C
Dew Point: 36°F , 2°C
Humidity: 81%
Barometer: 29.85 inHg , 1010.8 hPa
Clouds: Overcast
Visibility: 10 miles , 16 km
Cloud details: Few Clouds 2800 ft
Overcast 11000 ft
2018/11/13 23:56 KASH 132356Z 30014G20KT 10SM FEW028 OVC110 05/02 A2985 RMK AO2 SLP119 60004 T00500017 10061 20044 51034
 
KSFM - Sanford Muni, Maine, USA
Distance from station: N 50mi, 81km
Updated: Tue, 13-Nov-2018 6:56pm EST
Overcast
Overcast
 Wind from varies
Wind: varies 5 mph , 7 km/h
Temperature: 39°F , 4°C
Wind Chill: 35°F , 2°C
Dew Point: 36°F , 2°C
Humidity: 87%
Barometer: 29.76 inHg , 1007.8 hPa
Clouds: Overcast
Visibility: 10 miles , 16 km
Cloud details: Overcast 11000 ft
2018/11/13 23:56 KSFM 132356Z AUTO VRB04KT 10SM OVC110 04/02 A2976 RMK AO2 SLP084 6//// T00440017 10050 20039 53025 PNO $

Metar display script from Saratoga-Weather.org

 



home

Copyright © Sandy Bay Yacht Club. All rights reserved.